createdAt,value
2019-02-20T00:00:13.247Z,82.312012
2019-02-20T00:01:22.757Z,82.415771
2019-02-20T00:02:32.302Z,82.623291
2019-02-20T00:03:41.833Z,82.623291
2019-02-20T00:04:51.344Z,82.623291
2019-02-20T00:06:00.857Z,82.208252
2019-02-20T00:07:10.386Z,82.415771
2019-02-20T00:08:19.903Z,82.519531
2019-02-20T00:09:29.420Z,82.727051
2019-02-20T00:10:38.939Z,82.727051
2019-02-20T00:11:48.449Z,82.727051
2019-02-20T00:12:57.999Z,82.830811
2019-02-20T00:14:07.515Z,82.830811
2019-02-20T00:15:17.039Z,82.93457
2019-02-20T00:16:26.549Z,82.830811
2019-02-20T00:17:36.073Z,82.93457
2019-02-20T00:18:45.601Z,82.93457
2019-02-20T00:19:55.131Z,82.623291
2019-02-20T00:21:04.672Z,82.93457
2019-02-20T00:22:14.194Z,82.830811
2019-02-20T00:23:23.707Z,82.93457
2019-02-20T00:24:33.230Z,82.830811
2019-02-20T00:25:42.744Z,82.623291
2019-02-20T00:26:52.246Z,82.93457
2019-02-20T00:28:01.770Z,83.03833
2019-02-20T00:29:12.261Z,82.93457
2019-02-20T00:30:21.774Z,83.24585
2019-02-20T00:31:31.281Z,83.24585
2019-02-20T00:32:40.812Z,83.38623
2019-02-20T00:33:50.320Z,83.074951
2019-02-20T00:34:59.833Z,82.867432
2019-02-20T00:36:09.358Z,82.867432
2019-02-20T00:37:18.883Z,83.178711
2019-02-20T00:38:28.420Z,83.074951
2019-02-20T00:39:37.939Z,83.178711
2019-02-20T00:40:47.467Z,83.48999
2019-02-20T00:41:56.971Z,83.48999
2019-02-20T00:43:06.523Z,83.69751
2019-02-20T00:44:16.031Z,83.282471
2019-02-20T00:45:25.538Z,83.178711
2019-02-20T00:46:35.044Z,82.971191
2019-02-20T00:47:44.588Z,82.867432
2019-02-20T00:48:54.112Z,82.971191
2019-02-20T00:50:03.627Z,83.074951
2019-02-20T00:51:13.152Z,82.971191
2019-02-20T00:52:22.719Z,83.074951
2019-02-20T00:53:32.220Z,83.282471
2019-02-20T00:54:41.734Z,83.282471
2019-02-20T00:55:51.254Z,83.282471
2019-02-20T00:57:00.777Z,83.48999
2019-02-20T00:58:10.303Z,83.38623
2019-02-20T00:59:19.822Z,83.48999
2019-02-20T01:00:29.334Z,83.734131
2019-02-20T01:01:38.891Z,83.837891
2019-02-20T01:02:48.401Z,83.837891
2019-02-20T01:03:57.911Z,83.94165
2019-02-20T01:05:07.451Z,83.837891
2019-02-20T01:06:16.981Z,83.837891
2019-02-20T01:07:26.537Z,84.04541
2019-02-20T01:08:36.061Z,84.04541
2019-02-20T01:09:45.572Z,83.734131
2019-02-20T01:10:55.103Z,83.734131
2019-02-20T01:12:04.608Z,83.734131
2019-02-20T01:13:14.152Z,83.422852
2019-02-20T01:14:23.679Z,83.526611
2019-02-20T01:15:33.187Z,83.526611
2019-02-20T01:16:42.686Z,83.526611
2019-02-20T01:17:52.230Z,83.215332
2019-02-20T01:19:01.739Z,83.007812
2019-02-20T01:20:11.247Z,82.702637
2019-02-20T01:21:20.757Z,82.598877
2019-02-20T01:22:30.270Z,82.702637
2019-02-20T01:23:39.794Z,82.391357
2019-02-20T01:24:49.305Z,82.287598
2019-02-20T01:25:58.827Z,81.35376
2019-02-20T01:27:08.342Z,82.287598
2019-02-20T01:28:17.869Z,81.976318
2019-02-20T01:29:27.375Z,81.665039
2019-02-20T01:30:37.878Z,81.524658
2019-02-20T01:31:47.402Z,81.732178
2019-02-20T01:32:56.928Z,81.628418
2019-02-20T01:34:06.428Z,81.732178
2019-02-20T01:35:15.938Z,81.665039
2019-02-20T01:36:25.454Z,81.665039
2019-02-20T01:37:34.977Z,81.45752
2019-02-20T01:38:44.511Z,81.35376
2019-02-20T01:39:54.016Z,81.213379
2019-02-20T01:41:03.542Z,81.317139
2019-02-20T01:42:13.070Z,81.561279
2019-02-20T01:43:22.602Z,81.524658
2019-02-20T01:44:32.126Z,81.420898
2019-02-20T01:45:41.621Z,81.45752
2019-02-20T01:46:51.158Z,81.45752
2019-02-20T01:48:00.703Z,81.14624
2019-02-20T01:49:10.237Z,81.048584
2019-02-20T01:50:19.741Z,81.048584
2019-02-20T01:51:29.250Z,81.25
2019-02-20T01:52:38.763Z,81.35376
2019-02-20T01:53:48.317Z,81.45752
2019-02-20T01:54:57.829Z,81.048584
2019-02-20T01:56:07.354Z,81.25
2019-02-20T01:57:16.872Z,81.14624
2019-02-20T01:58:26.409Z,81.35376
2019-02-20T01:59:35.930Z,81.14624
2019-02-20T02:00:45.460Z,80.841064
2019-02-20T02:01:54.981Z,80.633545
2019-02-20T02:03:04.538Z,80.737305
2019-02-20T02:04:14.063Z,80.633545
2019-02-20T02:05:23.593Z,80.633545
2019-02-20T02:06:33.124Z,80.944824
2019-02-20T02:07:42.650Z,80.841064
2019-02-20T02:08:52.187Z,80.426025
2019-02-20T02:10:01.709Z,80.841064
2019-02-20T02:11:11.259Z,80.737305
2019-02-20T02:12:20.739Z,81.25
2019-02-20T02:13:30.267Z,80.944824
2019-02-20T02:14:39.813Z,80.944824
2019-02-20T02:15:49.306Z,81.14624
2019-02-20T02:16:58.814Z,81.048584
2019-02-20T02:18:08.359Z,81.14624
2019-02-20T02:19:17.911Z,81.048584
2019-02-20T02:20:27.433Z,81.14624
2019-02-20T02:21:36.950Z,80.737305
2019-02-20T02:22:46.477Z,80.737305
2019-02-20T02:23:56.019Z,80.737305
2019-02-20T02:25:05.524Z,80.737305
2019-02-20T02:26:16.037Z,80.737305
2019-02-20T02:27:25.572Z,80.944824
2019-02-20T02:28:35.152Z,80.841064
2019-02-20T02:29:44.670Z,80.841064
2019-02-20T02:30:54.190Z,80.944824
2019-02-20T02:32:03.720Z,80.841064
2019-02-20T02:33:13.247Z,80.737305
2019-02-20T02:34:22.761Z,81.048584
2019-02-20T02:35:32.275Z,81.25
2019-02-20T02:36:41.823Z,81.25
2019-02-20T02:37:51.352Z,81.14624
2019-02-20T02:39:00.876Z,81.25
2019-02-20T02:40:10.391Z,81.45752
2019-02-20T02:41:19.912Z,81.35376
2019-02-20T02:42:29.435Z,81.25
2019-02-20T02:43:39.119Z,81.14624
2019-02-20T02:44:48.468Z,81.25
2019-02-20T02:45:58.004Z,81.25
2019-02-20T02:47:07.520Z,81.048584
2019-02-20T02:48:17.034Z,80.841064
2019-02-20T02:49:26.564Z,80.944824
2019-02-20T02:50:36.101Z,80.633545
2019-02-20T02:51:45.614Z,81.048584
2019-02-20T02:52:55.131Z,80.944824
2019-02-20T02:54:04.680Z,80.841064
2019-02-20T02:55:14.201Z,80.944824
2019-02-20T02:56:23.711Z,80.841064
2019-02-20T02:57:33.224Z,81.048584
2019-02-20T02:58:42.747Z,81.25
2019-02-20T02:59:52.352Z,81.25
2019-02-20T03:01:01.853Z,81.25
2019-02-20T03:02:11.367Z,81.25
2019-02-20T03:03:20.899Z,81.14624
2019-02-20T03:04:30.422Z,81.35376
2019-02-20T03:05:39.977Z,81.14624
2019-02-20T03:06:49.524Z,81.14624
2019-02-20T03:07:59.040Z,81.25
2019-02-20T03:09:08.597Z,81.14624
2019-02-20T03:10:18.101Z,81.14624
2019-02-20T03:11:27.620Z,81.561279
2019-02-20T03:12:37.128Z,81.872559
2019-02-20T03:13:46.655Z,81.872559
2019-02-20T03:14:56.186Z,81.976318
2019-02-20T03:16:05.704Z,82.183838
2019-02-20T03:17:15.228Z,82.598877
2019-02-20T03:18:24.742Z,82.287598
2019-02-20T03:19:34.266Z,82.598877
2019-02-20T03:20:43.791Z,82.598877
2019-02-20T03:21:53.298Z,82.702637
2019-02-20T03:23:02.810Z,82.739258
2019-02-20T03:24:12.386Z,82.843018
2019-02-20T03:25:21.901Z,82.739258
2019-02-20T03:26:31.420Z,82.946777
2019-02-20T03:27:40.954Z,83.154297
2019-02-20T03:28:50.478Z,83.251953
2019-02-20T03:30:00.035Z,83.666992
2019-02-20T03:31:09.551Z,83.666992
2019-02-20T03:32:19.064Z,84.082031
2019-02-20T03:33:28.586Z,84.429932
2019-02-20T03:34:38.112Z,84.533691
2019-02-20T03:35:47.622Z,84.844971
2019-02-20T03:36:57.140Z,85.05249
2019-02-20T03:38:06.649Z,85.26001
2019-02-20T03:39:16.162Z,85.36377
2019-02-20T03:40:25.682Z,85.571289
2019-02-20T03:41:35.196Z,85.26001
2019-02-20T03:42:44.722Z,85.05249
2019-02-20T03:43:54.252Z,85.15625
2019-02-20T03:45:03.787Z,85.15625
2019-02-20T03:46:13.327Z,85.26001
2019-02-20T03:47:22.823Z,85.675049
2019-02-20T03:48:32.343Z,85.571289
2019-02-20T03:49:41.864Z,85.467529
2019-02-20T03:50:51.378Z,85.36377
2019-02-20T03:52:00.883Z,85.675049
2019-02-20T03:53:10.407Z,85.882568
2019-02-20T03:54:19.923Z,85.882568
2019-02-20T03:55:29.448Z,85.571289
2019-02-20T03:56:38.972Z,85.467529
2019-02-20T03:57:48.475Z,85.26001
2019-02-20T03:58:58.121Z,85.467529
2019-02-20T04:00:07.692Z,85.571289
2019-02-20T04:01:17.200Z,85.467529
2019-02-20T04:02:26.720Z,85.675049
2019-02-20T04:03:36.239Z,85.675049
2019-02-20T04:04:45.763Z,85.675049
2019-02-20T04:05:55.352Z,85.675049
2019-02-20T04:07:04.853Z,85.571289
2019-02-20T04:08:14.389Z,85.675049
2019-02-20T04:09:23.916Z,85.571289
2019-02-20T04:10:33.454Z,85.467529
2019-02-20T04:11:42.955Z,85.675049
2019-02-20T04:12:52.591Z,85.467529
2019-02-20T04:14:02.123Z,85.467529
2019-02-20T04:15:11.637Z,85.467529
2019-02-20T04:16:21.156Z,85.36377
2019-02-20T04:17:30.670Z,85.26001
2019-02-20T04:18:40.233Z,85.15625
2019-02-20T04:19:49.744Z,85.05249
2019-02-20T04:20:59.266Z,85.05249
2019-02-20T04:22:09.782Z,85.36377
2019-02-20T04:23:19.309Z,85.467529
2019-02-20T04:24:28.844Z,85.467529
2019-02-20T04:25:38.381Z,85.467529
2019-02-20T04:26:47.895Z,85.36377
2019-02-20T04:27:57.422Z,85.113525
2019-02-20T04:29:06.938Z,85.26001
2019-02-20T04:30:16.450Z,85.26001
2019-02-20T04:31:25.948Z,85.467529
2019-02-20T04:32:35.454Z,85.467529
2019-02-20T04:33:44.979Z,85.467529
2019-02-20T04:34:54.491Z,85.675049
2019-02-20T04:36:04.009Z,85.778809
2019-02-20T04:37:13.515Z,85.675049
2019-02-20T04:38:23.072Z,85.882568
2019-02-20T04:39:32.583Z,85.986328
2019-02-20T04:40:42.121Z,86.187744
2019-02-20T04:41:51.625Z,86.334229
2019-02-20T04:43:01.240Z,86.437988
2019-02-20T04:44:10.752Z,86.334229
2019-02-20T04:45:20.262Z,86.437988
2019-02-20T04:46:29.786Z,86.541748
2019-02-20T04:47:39.311Z,86.541748
2019-02-20T04:48:48.833Z,86.541748
2019-02-20T04:49:58.381Z,86.541748
2019-02-20T04:51:07.894Z,86.541748
2019-02-20T04:52:17.416Z,86.749268
2019-02-20T04:53:26.945Z,86.956787
2019-02-20T04:54:36.473Z,87.304688
2019-02-20T04:55:46.009Z,87.408447
2019-02-20T04:56:55.550Z,87.512207
2019-02-20T04:58:05.079Z,87.615967
2019-02-20T04:59:14.610Z,87.615967
2019-02-20T05:00:24.127Z,87.719727
2019-02-20T05:01:33.653Z,87.927246
2019-02-20T05:02:43.171Z,87.823486
2019-02-20T05:03:52.789Z,87.927246
2019-02-20T05:05:02.314Z,87.927246
2019-02-20T05:06:11.854Z,88.031006
2019-02-20T05:07:21.347Z,87.927246
2019-02-20T05:08:30.867Z,87.927246
2019-02-20T05:09:40.391Z,87.927246
2019-02-20T05:10:49.920Z,88.134766
2019-02-20T05:11:59.448Z,88.238525
2019-02-20T05:13:08.961Z,88.134766
2019-02-20T05:14:19.486Z,88.134766
2019-02-20T05:15:28.999Z,88.031006
2019-02-20T05:16:38.500Z,88.031006
2019-02-20T05:17:48.034Z,87.927246
2019-02-20T05:18:57.558Z,87.927246
2019-02-20T05:20:07.087Z,87.719727
2019-02-20T05:21:16.610Z,87.408447
2019-02-20T05:22:26.136Z,86.993408
2019-02-20T05:23:35.669Z,86.785889
2019-02-20T05:24:45.210Z,86.749268
2019-02-20T05:25:54.711Z,86.541748
2019-02-20T05:27:04.231Z,86.334229
2019-02-20T05:28:13.747Z,86.334229
2019-02-20T05:29:23.295Z,86.334229
2019-02-20T05:30:32.856Z,86.334229
2019-02-20T05:31:42.343Z,86.749268
2019-02-20T05:32:51.848Z,86.645508
2019-02-20T05:34:01.373Z,86.541748
2019-02-20T05:35:10.898Z,86.437988
2019-02-20T05:36:20.421Z,86.334229
2019-02-20T05:37:29.924Z,86.126709
2019-02-20T05:38:39.458Z,85.81543
2019-02-20T05:39:48.970Z,85.81543
2019-02-20T05:40:58.501Z,85.50415
2019-02-20T05:42:09.050Z,85.50415
2019-02-20T05:43:18.580Z,85.50415
2019-02-20T05:44:28.101Z,85.60791
2019-02-20T05:45:37.606Z,85.60791
2019-02-20T05:46:47.255Z,85.60791
2019-02-20T05:47:56.793Z,85.50415
2019-02-20T05:49:06.327Z,85.400391
2019-02-20T05:50:15.835Z,85.50415
2019-02-20T05:51:25.342Z,85.50415
2019-02-20T05:52:34.847Z,85.60791
2019-02-20T05:53:44.373Z,85.858154
2019-02-20T05:54:53.893Z,85.919189
2019-02-20T05:56:03.451Z,85.919189
2019-02-20T05:57:12.994Z,86.230469
2019-02-20T05:58:22.541Z,86.334229
2019-02-20T05:59:32.068Z,86.126709
2019-02-20T06:00:41.612Z,86.022949
2019-02-20T06:01:51.131Z,86.022949
2019-02-20T06:03:00.657Z,85.919189
2019-02-20T06:04:10.183Z,85.919189
2019-02-20T06:05:19.733Z,85.919189
2019-02-20T06:06:29.231Z,86.230469
2019-02-20T06:07:38.753Z,86.334229
2019-02-20T06:08:48.287Z,86.437988
2019-02-20T06:09:57.814Z,86.541748
2019-02-20T06:11:14.362Z,86.645508
2019-02-20T06:12:17.791Z,86.541748
2019-02-20T06:13:27.301Z,86.437988
2019-02-20T06:14:36.855Z,86.437988
2019-02-20T06:15:46.377Z,85.71167
2019-02-20T06:16:55.886Z,85.60791
2019-02-20T06:18:05.423Z,85.650635
2019-02-20T06:19:14.963Z,85.650635
2019-02-20T06:20:24.492Z,85.546875
2019-02-20T06:21:33.979Z,85.650635
2019-02-20T06:22:43.493Z,85.650635
2019-02-20T06:23:53.039Z,85.754395
2019-02-20T06:25:02.541Z,85.754395
2019-02-20T06:26:12.065Z,85.650635
2019-02-20T06:27:21.593Z,85.650635
2019-02-20T06:28:31.187Z,85.754395
2019-02-20T06:29:40.706Z,85.650635
2019-02-20T06:30:50.261Z,85.443115
2019-02-20T06:31:59.782Z,85.443115
2019-02-20T06:33:09.307Z,85.339355
2019-02-20T06:34:18.828Z,85.339355
2019-02-20T06:35:28.332Z,85.443115
2019-02-20T06:36:37.848Z,85.339355
2019-02-20T06:37:47.386Z,85.235596
2019-02-20T06:38:56.916Z,84.985352
2019-02-20T06:40:06.439Z,84.881592
2019-02-20T06:41:15.952Z,85.089111
2019-02-20T06:42:25.458Z,84.680176
2019-02-20T06:43:34.968Z,84.680176
2019-02-20T06:44:44.510Z,84.576416
2019-02-20T06:45:54.023Z,84.783936
2019-02-20T06:47:03.528Z,84.680176
2019-02-20T06:48:13.069Z,84.472656
2019-02-20T06:49:22.647Z,84.265137
2019-02-20T06:50:32.168Z,84.265137
2019-02-20T06:51:41.681Z,84.326172
2019-02-20T06:52:51.200Z,84.222412
2019-02-20T06:54:00.723Z,84.326172
2019-02-20T06:55:10.271Z,84.118652
2019-02-20T06:56:19.778Z,84.014893
2019-02-20T06:57:29.288Z,84.222412
2019-02-20T06:58:38.814Z,84.118652
2019-02-20T06:59:48.330Z,83.502197
2019-02-20T07:00:57.841Z,83.087158
2019-02-20T07:02:07.371Z,82.879639
2019-02-20T07:03:16.908Z,82.775879
2019-02-20T07:04:26.429Z,82.672119
2019-02-20T07:05:35.948Z,82.568359
2019-02-20T07:06:45.472Z,82.672119
2019-02-20T07:07:55.005Z,82.568359
2019-02-20T07:09:04.518Z,82.568359
2019-02-20T07:10:14.036Z,82.4646
2019-02-20T07:11:23.549Z,82.049561
2019-02-20T07:12:33.067Z,82.049561
2019-02-20T07:13:42.611Z,81.945801
2019-02-20T07:14:52.131Z,82.049561
2019-02-20T07:16:01.638Z,81.842041
2019-02-20T07:17:11.152Z,82.324219
2019-02-20T07:18:20.698Z,81.70166
2019-02-20T07:19:30.203Z,81.70166
2019-02-20T07:20:39.732Z,81.188965
2019-02-20T07:21:49.367Z,81.188965
2019-02-20T07:22:58.922Z,81.390381
2019-02-20T07:24:08.449Z,81.390381
2019-02-20T07:25:17.963Z,81.14624
2019-02-20T07:26:27.471Z,80.633545
2019-02-20T07:27:37.011Z,80.322266
2019-02-20T07:28:46.552Z,80.218506
2019-02-20T07:29:56.062Z,80.529785
2019-02-20T07:31:05.594Z,80.114746
2019-02-20T07:32:15.117Z,80.078125
2019-02-20T07:33:24.675Z,79.974365
2019-02-20T07:34:34.197Z,79.870605
2019-02-20T07:35:43.733Z,79.974365
2019-02-20T07:36:53.249Z,79.626465
2019-02-20T07:38:02.824Z,79.626465
2019-02-20T07:39:12.361Z,79.11377
2019-02-20T07:40:21.883Z,79.01001
2019-02-20T07:41:31.408Z,78.69873
2019-02-20T07:42:40.947Z,78.662109
2019-02-20T07:43:50.491Z,78.045654
2019-02-20T07:45:00.021Z,78.143311
2019-02-20T07:46:09.541Z,77.526855
2019-02-20T07:47:19.146Z,77.008057
2019-02-20T07:48:28.774Z,77.423096
2019-02-20T07:49:38.483Z,77.526855
2019-02-20T07:50:48.068Z,77.630615
2019-02-20T07:51:57.675Z,77.490234
2019-02-20T07:53:07.297Z,76.66626
2019-02-20T07:54:16.875Z,76.77002
2019-02-20T07:55:26.415Z,76.873779
2019-02-20T07:56:35.940Z,76.116943
2019-02-20T07:57:45.451Z,75.805664
2019-02-20T07:58:54.989Z,75.701904
2019-02-20T08:00:04.518Z,75.183105
2019-02-20T08:01:14.033Z,75.286865
2019-02-20T08:02:23.556Z,75.390625
2019-02-20T08:03:33.069Z,74.77417
2019-02-20T08:04:42.601Z,75.085449
2019-02-20T08:05:53.106Z,74.77417
2019-02-20T08:07:02.621Z,74.633789
2019-02-20T08:08:12.144Z,74.530029
2019-02-20T08:09:21.658Z,74.121094
2019-02-20T08:10:31.185Z,73.504639
2019-02-20T08:11:40.685Z,73.779297
2019-02-20T08:12:50.197Z,73.156738
2019-02-20T08:13:59.769Z,73.052979
2019-02-20T08:15:09.299Z,73.260498
2019-02-20T08:16:18.802Z,73.052979
2019-02-20T08:17:28.342Z,72.509766
2019-02-20T08:18:37.844Z,72.607422
2019-02-20T08:19:47.451Z,72.265625
2019-02-20T08:20:57.002Z,71.44165
2019-02-20T08:22:06.514Z,71.240234
2019-02-20T08:23:16.026Z,71.136475
2019-02-20T08:24:25.560Z,71.270752
2019-02-20T08:25:35.062Z,71.478271
2019-02-20T08:26:44.577Z,71.478271
2019-02-20T08:27:54.112Z,71.887207
2019-02-20T08:29:03.622Z,71.685791
2019-02-20T08:30:13.139Z,71.478271
2019-02-20T08:31:22.649Z,71.374512
2019-02-20T08:32:32.186Z,71.337891
2019-02-20T08:33:41.740Z,71.270752
2019-02-20T08:34:51.258Z,71.136475
2019-02-20T08:36:00.781Z,71.54541
2019-02-20T08:37:10.288Z,70.794678
2019-02-20T08:38:19.799Z,70.037842
2019-02-20T08:39:29.330Z,69.494629
2019-02-20T08:40:38.884Z,68.432617
2019-02-20T08:41:48.442Z,67.376709
2019-02-20T08:42:57.960Z,66.833496
2019-02-20T08:44:07.482Z,66.009521
2019-02-20T08:45:17.020Z,65.155029
2019-02-20T08:46:26.535Z,64.611816
2019-02-20T08:47:36.063Z,64.074707
2019-02-20T08:48:45.599Z,62.915039
2019-02-20T08:49:55.123Z,62.841797
2019-02-20T08:51:04.637Z,62.738037
2019-02-20T08:52:14.143Z,62.738037
2019-02-20T08:53:23.662Z,63.458252
2019-02-20T08:54:33.168Z,63.586426
2019-02-20T08:55:42.680Z,63.690186
2019-02-20T08:56:52.192Z,64.001465
2019-02-20T08:58:01.709Z,64.306641
2019-02-20T08:59:12.237Z,64.099121
2019-02-20T09:00:21.756Z,63.897705
2019-02-20T09:01:31.269Z,64.074707
2019-02-20T09:02:40.781Z,63.635254
2019-02-20T09:03:50.315Z,62.194824
2019-02-20T09:04:59.828Z,61.273193
2019-02-20T09:06:09.336Z,60.864258
2019-02-20T09:07:19.833Z,61.273193
2019-02-20T09:08:29.369Z,62.225342
2019-02-20T09:09:38.897Z,62.432861
2019-02-20T09:10:48.435Z,61.785889
2019-02-20T09:11:57.928Z,62.402344
2019-02-20T09:13:07.448Z,61.608887
2019-02-20T09:14:16.977Z,62.872314
2019-02-20T09:15:26.486Z,63.311768
2019-02-20T09:16:36.007Z,63.415527
2019-02-20T09:17:45.555Z,63.415527
2019-02-20T09:18:55.037Z,63.07373
2019-02-20T09:20:04.598Z,62.872314
2019-02-20T09:21:14.102Z,63.415527
2019-02-20T09:22:23.628Z,63.415527
2019-02-20T09:23:33.130Z,63.38501
2019-02-20T09:24:42.656Z,63.28125
2019-02-20T09:25:52.152Z,62.976074
2019-02-20T09:27:01.671Z,63.28125
2019-02-20T09:28:11.178Z,62.872314
2019-02-20T09:29:20.718Z,63.07373
2019-02-20T09:30:30.490Z,63.17749
2019-02-20T09:31:39.747Z,62.976074
2019-02-20T09:32:49.259Z,62.561035
2019-02-20T09:33:58.768Z,62.634277
2019-02-20T09:35:08.300Z,62.298584
2019-02-20T09:36:17.844Z,62.402344
2019-02-20T09:37:27.371Z,61.346436
2019-02-20T09:38:36.896Z,61.14502
2019-02-20T09:39:46.431Z,60.601807
2019-02-20T09:40:55.999Z,60.809326
2019-02-20T09:42:05.563Z,61.114502
2019-02-20T09:43:15.042Z,60.168457
2019-02-20T09:44:24.552Z,59.857178
2019-02-20T09:45:41.607Z,59.655762
2019-02-20T09:46:44.569Z,60.064697
2019-02-20T09:47:54.090Z,59.936523
2019-02-20T09:49:03.603Z,59.527588
2019-02-20T09:50:13.128Z,59.088135
2019-02-20T09:51:22.637Z,57.836914
2019-02-20T09:52:32.158Z,57.525635
2019-02-20T09:53:41.668Z,57.525635
2019-02-20T09:54:51.196Z,57.806396
2019-02-20T09:56:00.745Z,57.092285
2019-02-20T09:57:10.243Z,56.732178
2019-02-20T09:58:19.777Z,56.225586
2019-02-20T09:59:29.297Z,55.712891
2019-02-20T10:00:38.827Z,55.383301
2019-02-20T10:01:48.339Z,55.151367
2019-02-20T10:02:57.859Z,54.13208
2019-02-20T10:04:07.386Z,53.80249
2019-02-20T10:05:16.918Z,53.69873
2019-02-20T10:06:26.436Z,52.984619
2019-02-20T10:07:35.965Z,53.289795
2019-02-20T10:08:45.496Z,53.289795
2019-02-20T10:09:55.040Z,53.875732
2019-02-20T10:11:04.549Z,53.594971
2019-02-20T10:12:14.072Z,53.778076
2019-02-20T10:13:23.572Z,53.466797
2019-02-20T10:14:33.077Z,53.088379
2019-02-20T10:15:42.633Z,54.693604
2019-02-20T10:16:52.139Z,56.481934
2019-02-20T10:18:01.651Z,57.525635
2019-02-20T10:19:12.161Z,58.166504
2019-02-20T10:20:21.696Z,58.782959
2019-02-20T10:21:31.224Z,58.782959
2019-02-20T10:22:40.737Z,58.374023
2019-02-20T10:23:50.291Z,58.447266
2019-02-20T10:24:59.838Z,58.013916
2019-02-20T10:26:09.343Z,57.861328
2019-02-20T10:27:18.867Z,58.374023
2019-02-20T10:28:28.395Z,58.166504
2019-02-20T10:29:37.920Z,57.757568
2019-02-20T10:30:47.459Z,58.03833
2019-02-20T10:31:56.982Z,57.043457
2019-02-20T10:33:06.518Z,58.166504
2019-02-20T10:34:16.030Z,58.270264
2019-02-20T10:35:25.561Z,58.166504
2019-02-20T10:36:35.103Z,57.659912
2019-02-20T10:37:44.622Z,57.556152
2019-02-20T10:38:54.152Z,57.733154
2019-02-20T10:40:03.683Z,57.525635
2019-02-20T10:41:13.197Z,56.890869
2019-02-20T10:42:22.696Z,57.165527
2019-02-20T10:43:32.237Z,56.121826
2019-02-20T10:44:41.731Z,55.480957
2019-02-20T10:45:51.262Z,56.402588
2019-02-20T10:47:00.763Z,54.56543
2019-02-20T10:48:10.295Z,54.693604
2019-02-20T10:49:19.825Z,55.432129
2019-02-20T10:50:29.351Z,56.072998
2019-02-20T10:51:38.854Z,56.57959
2019-02-20T10:52:48.381Z,56.481934
2019-02-20T10:53:57.892Z,56.481934
2019-02-20T10:55:07.416Z,56.378174
2019-02-20T10:56:16.938Z,56.170654
2019-02-20T10:57:26.452Z,55.944824
2019-02-20T10:58:35.956Z,55.609131
2019-02-20T10:59:45.478Z,55.279541
2019-02-20T11:00:55.046Z,54.766846
2019-02-20T11:02:04.542Z,53.826904
2019-02-20T11:03:14.064Z,54.35791
2019-02-20T11:04:23.576Z,54.156494
2019-02-20T11:05:33.437Z,54.052734
2019-02-20T11:06:42.624Z,54.02832
2019-02-20T11:07:52.147Z,53.900146
2019-02-20T11:09:01.663Z,53.161621
2019-02-20T11:10:11.194Z,53.369141
2019-02-20T11:11:20.707Z,53.393555
2019-02-20T11:12:30.234Z,54.13208
2019-02-20T11:13:39.754Z,54.333496
2019-02-20T11:14:49.322Z,53.924561
2019-02-20T11:15:58.964Z,54.23584
2019-02-20T11:17:08.398Z,54.107666
2019-02-20T11:18:17.914Z,54.260254
2019-02-20T11:19:27.425Z,54.766846
2019-02-20T11:20:36.967Z,55.609131
2019-02-20T11:21:47.489Z,56.018066
2019-02-20T11:22:57.010Z,56.323242
2019-02-20T11:24:06.534Z,55.914307
2019-02-20T11:25:16.057Z,55.511475
2019-02-20T11:26:25.583Z,55.841064
2019-02-20T11:27:35.093Z,56.481934
2019-02-20T11:28:44.635Z,56.274414
2019-02-20T11:29:54.140Z,56.04248
2019-02-20T11:31:03.665Z,56.097412
2019-02-20T11:32:13.196Z,56.634521
2019-02-20T11:33:22.730Z,57.275391
2019-02-20T11:34:32.230Z,58.398438
2019-02-20T11:35:41.763Z,58.197021
2019-02-20T11:36:51.436Z,58.502197
2019-02-20T11:38:01.956Z,58.605957
2019-02-20T11:39:11.778Z,58.374023
2019-02-20T11:40:20.997Z,57.659912
2019-02-20T11:41:30.529Z,57.147217
2019-02-20T11:42:40.048Z,57.275391
2019-02-20T11:43:49.561Z,57.885742
2019-02-20T11:44:59.077Z,57.37915
2019-02-20T11:46:08.605Z,57.580566
2019-02-20T11:47:18.130Z,57.684326
2019-02-20T11:48:27.640Z,56.738281
2019-02-20T11:49:37.167Z,56.842041
2019-02-20T11:50:46.718Z,56.842041
2019-02-20T11:51:56.227Z,57.067871
2019-02-20T11:53:05.729Z,57.611084
2019-02-20T11:54:15.244Z,58.453369
2019-02-20T11:55:24.791Z,59.301758
2019-02-20T11:56:34.292Z,59.814453
2019-02-20T11:57:43.795Z,60.015869
2019-02-20T11:58:53.308Z,60.351562
2019-02-20T12:00:02.822Z,60.968018
2019-02-20T12:01:12.335Z,61.273193
2019-02-20T12:02:21.843Z,61.480713
2019-02-20T12:03:31.352Z,61.584473
2019-02-20T12:04:40.851Z,63.122559
2019-02-20T12:05:50.372Z,63.195801
2019-02-20T12:06:59.885Z,63.604736
2019-02-20T12:08:09.409Z,64.013672
2019-02-20T12:09:18.928Z,64.422607
2019-02-20T12:10:28.468Z,64.526367
2019-02-20T12:11:37.990Z,64.526367
2019-02-20T12:12:47.498Z,64.526367
2019-02-20T12:13:57.022Z,64.935303
2019-02-20T12:15:06.537Z,64.935303
2019-02-20T12:16:16.068Z,65.447998
2019-02-20T12:17:25.592Z,65.136719
2019-02-20T12:18:35.115Z,64.935303
2019-02-20T12:19:44.631Z,64.831543
2019-02-20T12:20:54.147Z,65.039062
2019-02-20T12:22:03.651Z,65.136719
2019-02-20T12:23:13.184Z,64.727783
2019-02-20T12:24:22.684Z,64.215088
2019-02-20T12:25:32.214Z,63.909912
2019-02-20T12:26:41.725Z,64.318848
2019-02-20T12:27:51.230Z,64.422607
2019-02-20T12:29:00.742Z,64.526367
2019-02-20T12:30:10.272Z,64.318848
2019-02-20T12:31:19.788Z,64.624023
2019-02-20T12:32:30.884Z,64.727783
2019-02-20T12:33:38.843Z,64.831543
2019-02-20T12:34:48.350Z,64.831543
2019-02-20T12:35:57.895Z,64.727783
2019-02-20T12:37:07.469Z,64.599609
2019-02-20T12:38:16.988Z,64.28833
2019-02-20T12:39:27.754Z,64.801025
2019-02-20T12:40:36.011Z,64.599609
2019-02-20T12:41:45.573Z,64.624023
2019-02-20T12:42:55.111Z,65.374756
2019-02-20T12:44:04.649Z,65.783691
2019-02-20T12:45:14.154Z,66.192627
2019-02-20T12:46:23.682Z,66.088867
2019-02-20T12:47:33.190Z,66.192627
2019-02-20T12:48:42.692Z,65.649414
2019-02-20T12:49:52.187Z,65.551758
2019-02-20T12:51:01.710Z,65.551758
2019-02-20T12:52:11.230Z,65.551758
2019-02-20T12:53:20.748Z,65.344238
2019-02-20T12:54:30.251Z,65.136719
2019-02-20T12:55:39.764Z,65.240479
2019-02-20T12:56:49.369Z,65.551758
2019-02-20T12:57:58.885Z,65.447998
2019-02-20T12:59:08.412Z,65.344238
2019-02-20T13:00:17.926Z,65.344238
2019-02-20T13:01:27.445Z,65.960693
2019-02-20T13:02:37.950Z,66.949463
2019-02-20T13:03:47.473Z,67.773438
2019-02-20T13:04:57.005Z,65.179443
2019-02-20T13:06:06.511Z,66.479492
2019-02-20T13:07:17.644Z,65.429688
2019-02-20T13:08:25.505Z,64.782715
2019-02-20T13:09:35.026Z,62.915039
2019-02-20T13:10:44.557Z,62.683105
2019-02-20T13:11:54.071Z,61.529541
2019-02-20T13:13:03.614Z,63.873291
2019-02-20T13:14:13.123Z,61.297607
2019-02-20T13:15:22.661Z,59.637451
2019-02-20T13:16:32.184Z,59.429932
2019-02-20T13:17:41.735Z,59.332275
2019-02-20T13:18:51.216Z,59.332275